createdAt,value
2022-08-07T00:03:03.524Z,10.55
2022-08-07T00:08:08.272Z,9.60
2022-08-07T00:13:25.532Z,10.93
2022-08-07T00:18:19.378Z,11.23
2022-08-07T00:23:40.209Z,10.57
2022-08-07T00:28:45.691Z,10.68
2022-08-07T01:07:27.616Z,10.65
2022-08-07T01:13:04.223Z,10.60
2022-08-07T01:18:20.054Z,10.88
2022-08-07T01:23:36.396Z,11.65
2022-08-07T01:29:03.538Z,11.10
2022-08-07T01:37:28.354Z,12.32
2022-08-07T01:39:51.702Z,11.40
2022-08-07T01:45:02.745Z,11.07
2022-08-07T01:55:45.440Z,11.23
2022-08-07T02:07:15.165Z,11.93
2022-08-07T02:17:49.776Z,10.60
2022-08-07T02:44:47.874Z,9.43
2022-08-07T02:56:03.014Z,9.68
2022-08-07T03:12:02.731Z,9.68
2022-08-07T03:17:30.573Z,9.23
2022-08-07T03:28:36.885Z,9.85
2022-08-07T03:54:55.275Z,10.48
2022-08-07T04:00:46.220Z,9.73
2022-08-07T04:19:52.481Z,18.35
2022-08-07T04:58:24.424Z,10.20
2022-08-07T05:14:53.108Z,7.80
2022-08-07T05:26:47.755Z,8.98
2022-08-07T06:00:51.189Z,8.27
2022-08-07T06:12:45.105Z,9.05
2022-08-07T06:18:05.960Z,8.38
2022-08-07T06:34:45.312Z,8.23
2022-08-07T07:03:37.315Z,8.73
2022-08-07T07:24:09.555Z,10.75
2022-08-07T07:32:24.067Z,8.80
2022-08-07T07:37:56.020Z,11.17
2022-08-07T08:16:50.388Z,17.73
2022-08-07T08:22:14.172Z,11.25
2022-08-07T08:44:57.758Z,7.77
2022-08-07T08:50:06.583Z,7.90
2022-08-07T09:06:26.867Z,8.98
2022-08-07T09:36:04.670Z,7.85
2022-08-07T10:04:14.290Z,8.00
2022-08-07T10:09:59.020Z,7.30
2022-08-07T10:32:36.779Z,7.95
2022-08-07T10:55:37.990Z,6.80
2022-08-07T11:01:11.600Z,6.90
2022-08-07T11:06:42.336Z,6.78
2022-08-07T11:39:59.126Z,5.05
2022-08-07T11:51:41.453Z,4.72
2022-08-07T11:52:29.446Z,4.93
2022-08-07T11:56:43.913Z,4.93
2022-08-07T12:29:37.888Z,5.43
2022-08-07T13:26:18.375Z,5.22
2022-08-07T13:38:06.247Z,3.40
2022-08-07T13:43:05.945Z,4.72
2022-08-07T13:54:49.399Z,4.75
2022-08-07T14:05:37.468Z,4.95
2022-08-07T14:10:46.214Z,3.90
2022-08-07T14:20:54.553Z,3.95
2022-08-07T14:24:59.524Z,3.90
2022-08-07T14:29:06.057Z,4.15
2022-08-07T14:33:14.918Z,3.95
2022-08-07T14:37:36.161Z,3.75
2022-08-07T14:42:18.609Z,3.63
2022-08-07T14:46:20.349Z,4.68
2022-08-07T14:50:37.762Z,4.03
2022-08-07T14:54:43.024Z,4.55
2022-08-07T15:07:24.247Z,4.47
2022-08-07T15:12:01.604Z,3.88
2022-08-07T15:16:11.483Z,3.05
2022-08-07T15:20:33.467Z,3.88
2022-08-07T15:25:13.218Z,3.95
2022-08-07T15:30:08.643Z,3.47
2022-08-07T15:33:22.994Z,3.70
2022-08-07T15:38:04.443Z,5.05
2022-08-07T15:42:45.877Z,3.28
2022-08-07T15:46:31.922Z,3.83
2022-08-07T15:51:07.970Z,3.58
2022-08-07T15:55:08.963Z,3.25
2022-08-07T15:59:19.602Z,3.97
2022-08-07T16:03:46.393Z,3.30
2022-08-07T16:08:31.068Z,4.35
2022-08-07T16:12:29.191Z,3.75
2022-08-07T16:16:47.584Z,4.10
2022-08-07T16:22:02.278Z,3.55
2022-08-07T16:25:55.006Z,5.13
2022-08-07T16:30:31.225Z,3.55
2022-08-07T16:34:48.817Z,5.57
2022-08-07T16:39:05.763Z,4.32
2022-08-07T16:43:25.531Z,4.95
2022-08-07T16:48:10.045Z,5.28
2022-08-07T16:52:51.349Z,4.80
2022-08-07T16:57:15.789Z,5.40
2022-08-07T17:01:41.059Z,3.47
2022-08-07T17:06:18.855Z,3.88
2022-08-07T17:10:32.952Z,3.58
2022-08-07T17:14:45.613Z,3.65
2022-08-07T17:18:51.332Z,3.40
2022-08-07T17:22:59.445Z,3.47
2022-08-07T17:27:05.407Z,3.47
2022-08-07T17:31:17.810Z,3.75
2022-08-07T17:35:51.369Z,3.50
2022-08-07T17:39:58.687Z,4.15
2022-08-07T17:44:33.713Z,3.83
2022-08-07T17:48:46.149Z,3.95
2022-08-07T17:52:59.637Z,4.38
2022-08-07T17:57:03.818Z,4.05
2022-08-07T18:01:36.685Z,3.83
2022-08-07T18:06:02.147Z,4.72
2022-08-07T18:10:29.125Z,4.13
2022-08-07T18:14:46.056Z,4.07
2022-08-07T18:21:04.142Z,3.65
2022-08-07T18:23:41.877Z,5.43
2022-08-07T18:28:06.313Z,4.22
2022-08-07T18:32:23.472Z,4.60
2022-08-07T18:36:33.102Z,4.40
2022-08-07T18:40:59.254Z,6.10
2022-08-07T18:45:43.341Z,5.03
2022-08-07T18:50:31.423Z,5.07
2022-08-07T18:54:30.819Z,5.05
2022-08-07T18:58:51.442Z,6.13
2022-08-07T19:02:57.334Z,4.70
2022-08-07T19:07:03.750Z,4.15
2022-08-07T19:11:34.741Z,4.88
2022-08-07T19:16:05.104Z,4.82
2022-08-07T19:20:29.048Z,4.88
2022-08-07T19:24:38.315Z,4.68
2022-08-07T19:30:57.628Z,4.20
2022-08-07T19:33:17.342Z,4.35
2022-08-07T19:37:55.380Z,5.32
2022-08-07T19:42:07.928Z,4.13
2022-08-07T19:46:21.945Z,4.90
2022-08-07T19:50:30.288Z,4.40
2022-08-07T19:54:55.829Z,5.20
2022-08-07T19:58:57.789Z,4.78
2022-08-07T20:03:33.578Z,5.13
2022-08-07T20:07:46.121Z,4.68
2022-08-07T20:12:22.566Z,4.50
2022-08-07T20:16:32.190Z,4.60
2022-08-07T20:20:36.028Z,4.90
2022-08-07T20:24:38.643Z,5.30
2022-08-07T20:28:40.165Z,4.63
2022-08-07T20:32:46.298Z,5.05
2022-08-07T20:36:51.717Z,6.03
2022-08-07T20:41:00.776Z,6.00
2022-08-07T20:46:24.894Z,5.70
2022-08-07T20:49:59.539Z,6.40
2022-08-07T20:54:03.462Z,6.50
2022-08-07T20:58:11.764Z,8.05
2022-08-07T21:02:38.472Z,6.18
2022-08-07T21:06:46.612Z,6.20
2022-08-07T21:10:58.518Z,7.03
2022-08-07T21:15:09.087Z,7.57
2022-08-07T21:19:19.588Z,5.85
2022-08-07T21:23:30.002Z,6.30
2022-08-07T21:27:39.933Z,6.35
2022-08-07T21:32:47.430Z,5.85
2022-08-07T21:36:32.862Z,6.28
2022-08-07T21:40:43.313Z,6.10
2022-08-07T21:44:51.022Z,6.47
2022-08-07T21:49:01.441Z,6.32
2022-08-07T21:53:08.565Z,6.75
2022-08-07T21:57:40.075Z,6.32
2022-08-07T22:02:10.247Z,6.65
2022-08-07T22:06:30.225Z,7.07
2022-08-07T22:10:35.556Z,6.70
2022-08-07T22:14:59.249Z,7.05
2022-08-07T22:19:07.445Z,6.80
2022-08-07T22:23:21.613Z,6.38
2022-08-07T22:28:03.050Z,7.05
2022-08-07T22:32:03.445Z,7.82
2022-08-07T22:36:14.493Z,7.30
2022-08-07T22:40:22.773Z,6.57
2022-08-07T22:44:26.768Z,6.95
2022-08-07T22:49:02.205Z,6.65
2022-08-07T22:54:06.453Z,7.15
2022-08-07T22:58:12.448Z,7.10
2022-08-07T23:02:32.102Z,7.90
2022-08-07T23:06:56.604Z,7.13
2022-08-07T23:11:13.023Z,7.07
2022-08-07T23:16:07.069Z,6.97
2022-08-07T23:20:08.695Z,7.03
2022-08-07T23:24:38.729Z,7.28
2022-08-07T23:28:59.409Z,6.97
2022-08-07T23:34:33.772Z,6.30
2022-08-07T23:38:19.299Z,6.60
2022-08-07T23:43:01.812Z,6.10
2022-08-07T23:47:21.854Z,6.88
2022-08-07T23:53:01.266Z,6.68
2022-08-07T23:55:58.006Z,6.00
